sensor_id;sensor_type;location;lat;lon;timestamp;P1;durP1;ratioP1;P2;durP2;ratioP2
16784;SDS011;8509;52.178;5.404;2024-02-26T00:00:09;2.50;;;1.95;;
16784;SDS011;8509;52.178;5.404;2024-02-26T00:02:36;2.08;;;1.70;;
16784;SDS011;8509;52.178;5.404;2024-02-26T00:05:06;1.63;;;1.38;;
16784;SDS011;8509;52.178;5.404;2024-02-26T00:07:32;2.42;;;2.05;;
16784;SDS011;8509;52.178;5.404;2024-02-26T00:09:58;1.58;;;1.33;;
16784;SDS011;8509;52.178;5.404;2024-02-26T00:12:32;2.35;;;2.08;;
16784;SDS011;8509;52.178;5.404;2024-02-26T00:15:00;2.75;;;2.10;;
16784;SDS011;8509;52.178;5.404;2024-02-26T00:17:29;4.25;;;1.85;;
16784;SDS011;8509;52.178;5.404;2024-02-26T00:19:56;3.38;;;2.20;;
16784;SDS011;8509;52.178;5.404;2024-02-26T00:22:22;1.70;;;1.33;;
16784;SDS011;8509;52.178;5.404;2024-02-26T00:24:47;2.38;;;1.83;;
16784;SDS011;8509;52.178;5.404;2024-02-26T00:27:14;4.72;;;2.30;;
16784;SDS011;8509;52.178;5.404;2024-02-26T00:29:39;2.63;;;1.92;;
16784;SDS011;8509;52.178;5.404;2024-02-26T00:32:05;2.88;;;2.13;;
16784;SDS011;8509;52.178;5.404;2024-02-26T00:34:31;2.83;;;2.25;;
16784;SDS011;8509;52.178;5.404;2024-02-26T00:36:57;7.65;;;2.60;;
16784;SDS011;8509;52.178;5.404;2024-02-26T00:39:22;2.88;;;1.75;;
16784;SDS011;8509;52.178;5.404;2024-02-26T00:41:48;3.08;;;2.10;;
16784;SDS011;8509;52.178;5.404;2024-02-26T00:44:16;2.20;;;1.98;;
16784;SDS011;8509;52.178;5.404;2024-02-26T00:46:44;1.77;;;1.65;;
16784;SDS011;8509;52.178;5.404;2024-02-26T00:49:10;2.47;;;2.28;;
16784;SDS011;8509;52.178;5.404;2024-02-26T00:51:36;2.22;;;1.77;;
16784;SDS011;8509;52.178;5.404;2024-02-26T00:54:03;3.75;;;2.40;;
16784;SDS011;8509;52.178;5.404;2024-02-26T00:56:29;3.05;;;2.08;;
16784;SDS011;8509;52.178;5.404;2024-02-26T00:58:54;4.25;;;2.83;;
16784;SDS011;8509;52.178;5.404;2024-02-26T01:01:20;2.95;;;2.45;;
16784;SDS011;8509;52.178;5.404;2024-02-26T01:03:47;2.97;;;2.05;;
16784;SDS011;8509;52.178;5.404;2024-02-26T01:06:13;4.25;;;2.60;;
16784;SDS011;8509;52.178;5.404;2024-02-26T01:08:39;2.72;;;1.67;;
16784;SDS011;8509;52.178;5.404;2024-02-26T01:11:05;3.03;;;2.38;;
16784;SDS011;8509;52.178;5.404;2024-02-26T01:13:30;3.42;;;2.22;;
16784;SDS011;8509;52.178;5.404;2024-02-26T01:15:56;4.80;;;2.63;;
16784;SDS011;8509;52.178;5.404;2024-02-26T01:18:26;4.65;;;2.53;;
16784;SDS011;8509;52.178;5.404;2024-02-26T01:20:56;2.92;;;1.92;;
16784;SDS011;8509;52.178;5.404;2024-02-26T01:23:21;3.38;;;2.33;;
16784;SDS011;8509;52.178;5.404;2024-02-26T01:25:47;4.55;;;2.72;;
16784;SDS011;8509;52.178;5.404;2024-02-26T01:28:15;3.13;;;2.10;;
16784;SDS011;8509;52.178;5.404;2024-02-26T01:30:41;4.28;;;2.35;;
16784;SDS011;8509;52.178;5.404;2024-02-26T01:33:07;3.95;;;2.28;;
16784;SDS011;8509;52.178;5.404;2024-02-26T01:35:33;2.20;;;1.77;;
16784;SDS011;8509;52.178;5.404;2024-02-26T01:37:58;5.18;;;2.35;;
16784;SDS011;8509;52.178;5.404;2024-02-26T01:40:27;2.72;;;1.98;;
16784;SDS011;8509;52.178;5.404;2024-02-26T01:42:53;3.35;;;2.13;;
16784;SDS011;8509;52.178;5.404;2024-02-26T01:45:19;3.45;;;2.40;;
16784;SDS011;8509;52.178;5.404;2024-02-26T01:50:30;4.03;;;2.20;;
16784;SDS011;8509;52.178;5.404;2024-02-26T01:53:36;3.65;;;2.35;;
16784;SDS011;8509;52.178;5.404;2024-02-26T01:56:57;2.50;;;1.77;;
16784;SDS011;8509;52.178;5.404;2024-02-26T01:59:23;2.87;;;1.97;;
16784;SDS011;8509;52.178;5.404;2024-02-26T02:01:51;10.25;;;2.38;;
16784;SDS011;8509;52.178;5.404;2024-02-26T02:04:20;3.88;;;2.72;;
16784;SDS011;8509;52.178;5.404;2024-02-26T02:06:48;10.05;;;2.38;;
16784;SDS011;8509;52.178;5.404;2024-02-26T02:09:14;2.90;;;2.03;;
16784;SDS011;8509;52.178;5.404;2024-02-26T02:11:40;2.05;;;1.77;;
16784;SDS011;8509;52.178;5.404;2024-02-26T02:14:16;3.42;;;2.30;;
16784;SDS011;8509;52.178;5.404;2024-02-26T02:17:44;3.83;;;2.70;;
16784;SDS011;8509;52.178;5.404;2024-02-26T02:20:23;3.00;;;2.30;;
16784;SDS011;8509;52.178;5.404;2024-02-26T02:23:08;2.97;;;1.90;;
16784;SDS011;8509;52.178;5.404;2024-02-26T02:25:37;3.97;;;2.88;;
16784;SDS011;8509;52.178;5.404;2024-02-26T02:28:06;4.55;;;2.22;;
16784;SDS011;8509;52.178;5.404;2024-02-26T02:30:34;3.22;;;2.25;;
16784;SDS011;8509;52.178;5.404;2024-02-26T02:33:01;5.47;;;3.15;;
16784;SDS011;8509;52.178;5.404;2024-02-26T02:35:40;5.80;;;2.80;;
16784;SDS011;8509;52.178;5.404;2024-02-26T02:38:11;4.00;;;2.23;;
16784;SDS011;8509;52.178;5.404;2024-02-26T02:40:55;7.00;;;3.13;;
16784;SDS011;8509;52.178;5.404;2024-02-26T02:43:25;2.97;;;1.95;;
16784;SDS011;8509;52.178;5.404;2024-02-26T02:46:01;4.03;;;2.63;;
16784;SDS011;8509;52.178;5.404;2024-02-26T02:48:53;3.85;;;2.58;;
16784;SDS011;8509;52.178;5.404;2024-02-26T02:51:28;3.67;;;2.70;;
16784;SDS011;8509;52.178;5.404;2024-02-26T02:53:57;3.03;;;2.10;;
16784;SDS011;8509;52.178;5.404;2024-02-26T02:56:23;6.45;;;2.67;;
16784;SDS011;8509;52.178;5.404;2024-02-26T02:58:49;3.53;;;2.70;;
16784;SDS011;8509;52.178;5.404;2024-02-26T03:01:34;7.93;;;2.53;;
16784;SDS011;8509;52.178;5.404;2024-02-26T03:04:00;5.88;;;2.65;;
16784;SDS011;8509;52.178;5.404;2024-02-26T03:06:37;6.55;;;3.30;;
16784;SDS011;8509;52.178;5.404;2024-02-26T03:09:53;4.18;;;3.08;;
16784;SDS011;8509;52.178;5.404;2024-02-26T03:12:27;3.78;;;2.45;;
16784;SDS011;8509;52.178;5.404;2024-02-26T03:17:46;8.35;;;2.47;;
16784;SDS011;8509;52.178;5.404;2024-02-26T03:20:12;4.65;;;3.08;;
16784;SDS011;8509;52.178;5.404;2024-02-26T03:22:38;5.07;;;2.63;;
16784;SDS011;8509;52.178;5.404;2024-02-26T03:25:05;6.30;;;3.20;;
16784;SDS011;8509;52.178;5.404;2024-02-26T03:27:33;4.13;;;2.83;;
16784;SDS011;8509;52.178;5.404;2024-02-26T03:30:01;5.00;;;2.92;;
16784;SDS011;8509;52.178;5.404;2024-02-26T03:32:28;7.00;;;3.33;;
16784;SDS011;8509;52.178;5.404;2024-02-26T03:34:54;5.05;;;2.72;;
16784;SDS011;8509;52.178;5.404;2024-02-26T03:37:22;7.38;;;3.05;;
16784;SDS011;8509;52.178;5.404;2024-02-26T03:39:55;6.90;;;3.28;;
16784;SDS011;8509;52.178;5.404;2024-02-26T03:42:22;5.18;;;3.25;;
16784;SDS011;8509;52.178;5.404;2024-02-26T03:44:48;7.25;;;3.03;;
16784;SDS011;8509;52.178;5.404;2024-02-26T03:47:20;5.38;;;3.60;;
16784;SDS011;8509;52.178;5.404;2024-02-26T03:52:11;5.78;;;3.45;;
16784;SDS011;8509;52.178;5.404;2024-02-26T03:54:37;5.07;;;3.35;;
16784;SDS011;8509;52.178;5.404;2024-02-26T03:57:03;5.00;;;3.22;;
16784;SDS011;8509;52.178;5.404;2024-02-26T03:59:30;7.03;;;3.22;;
16784;SDS011;8509;52.178;5.404;2024-02-26T04:01:56;4.20;;;2.13;;
16784;SDS011;8509;52.178;5.404;2024-02-26T04:04:28;7.57;;;3.55;;
16784;SDS011;8509;52.178;5.404;2024-02-26T04:07:06;6.63;;;3.03;;
16784;SDS011;8509;52.178;5.404;2024-02-26T04:09:35;5.75;;;3.88;;
16784;SDS011;8509;52.178;5.404;2024-02-26T04:12:00;7.20;;;3.47;;
16784;SDS011;8509;52.178;5.404;2024-02-26T04:14:29;5.65;;;2.83;;
16784;SDS011;8509;52.178;5.404;2024-02-26T04:17:37;6.30;;;3.38;;
16784;SDS011;8509;52.178;5.404;2024-02-26T04:20:12;5.28;;;2.97;;
16784;SDS011;8509;52.178;5.404;2024-02-26T04:22:39;6.55;;;3.40;;
16784;SDS011;8509;52.178;5.404;2024-02-26T04:25:06;6.93;;;3.67;;
16784;SDS011;8509;52.178;5.404;2024-02-26T04:27:32;3.38;;;2.40;;
16784;SDS011;8509;52.178;5.404;2024-02-26T04:29:58;4.65;;;2.90;;
16784;SDS011;8509;52.178;5.404;2024-02-26T04:32:23;5.65;;;3.55;;
16784;SDS011;8509;52.178;5.404;2024-02-26T04:34:49;5.75;;;3.05;;
16784;SDS011;8509;52.178;5.404;2024-02-26T04:37:15;5.13;;;3.13;;
16784;SDS011;8509;52.178;5.404;2024-02-26T04:39:41;5.22;;;2.83;;
16784;SDS011;8509;52.178;5.404;2024-02-26T04:42:07;4.75;;;2.80;;
16784;SDS011;8509;52.178;5.404;2024-02-26T04:44:51;5.90;;;3.30;;
16784;SDS011;8509;52.178;5.404;2024-02-26T04:47:20;7.13;;;3.53;;
16784;SDS011;8509;52.178;5.404;2024-02-26T04:49:52;3.40;;;2.50;;
16784;SDS011;8509;52.178;5.404;2024-02-26T04:52:21;8.15;;;4.07;;
16784;SDS011;8509;52.178;5.404;2024-02-26T04:54:47;5.38;;;3.35;;
16784;SDS011;8509;52.178;5.404;2024-02-26T04:57:15;6.70;;;3.25;;
16784;SDS011;8509;52.178;5.404;2024-02-26T04:59:43;6.60;;;4.30;;
16784;SDS011;8509;52.178;5.404;2024-02-26T05:02:10;6.05;;;3.58;;
16784;SDS011;8509;52.178;5.404;2024-02-26T05:04:35;5.45;;;3.45;;
16784;SDS011;8509;52.178;5.404;2024-02-26T05:07:01;5.03;;;3.08;;
16784;SDS011;8509;52.178;5.404;2024-02-26T05:09:42;6.47;;;3.85;;
16784;SDS011;8509;52.178;5.404;2024-02-26T05:12:08;5.97;;;3.28;;
16784;SDS011;8509;52.178;5.404;2024-02-26T05:14:34;7.53;;;3.83;;
16784;SDS011;8509;52.178;5.404;2024-02-26T05:17:00;5.28;;;3.70;;
16784;SDS011;8509;52.178;5.404;2024-02-26T05:19:28;6.75;;;4.28;;
16784;SDS011;8509;52.178;5.404;2024-02-26T05:21:54;7.72;;;3.70;;
16784;SDS011;8509;52.178;5.404;2024-02-26T05:24:22;7.22;;;3.55;;
16784;SDS011;8509;52.178;5.404;2024-02-26T05:26:48;5.65;;;3.13;;
16784;SDS011;8509;52.178;5.404;2024-02-26T05:29:14;5.15;;;3.28;;
16784;SDS011;8509;52.178;5.404;2024-02-26T05:31:42;7.05;;;4.55;;
16784;SDS011;8509;52.178;5.404;2024-02-26T05:34:07;7.50;;;3.60;;
16784;SDS011;8509;52.178;5.404;2024-02-26T05:36:33;13.23;;;5.00;;
16784;SDS011;8509;52.178;5.404;2024-02-26T05:41:46;8.75;;;3.38;;
16784;SDS011;8509;52.178;5.404;2024-02-26T05:44:17;7.28;;;3.45;;
16784;SDS011;8509;52.178;5.404;2024-02-26T05:46:43;6.65;;;3.88;;
16784;SDS011;8509;52.178;5.404;2024-02-26T05:49:12;7.10;;;4.53;;
16784;SDS011;8509;52.178;5.404;2024-02-26T05:51:40;6.85;;;4.10;;
16784;SDS011;8509;52.178;5.404;2024-02-26T05:54:11;7.88;;;4.57;;
16784;SDS011;8509;52.178;5.404;2024-02-26T05:56:39;5.47;;;3.50;;
16784;SDS011;8509;52.178;5.404;2024-02-26T05:59:07;11.25;;;4.45;;
16784;SDS011;8509;52.178;5.404;2024-02-26T06:01:33;6.72;;;3.75;;
16784;SDS011;8509;52.178;5.404;2024-02-26T06:04:00;9.77;;;4.07;;
16784;SDS011;8509;52.178;5.404;2024-02-26T06:06:26;6.57;;;4.20;;
16784;SDS011;8509;52.178;5.404;2024-02-26T06:08:53;6.63;;;3.90;;
16784;SDS011;8509;52.178;5.404;2024-02-26T06:11:19;7.28;;;4.13;;
16784;SDS011;8509;52.178;5.404;2024-02-26T06:13:44;8.18;;;3.63;;
16784;SDS011;8509;52.178;5.404;2024-02-26T06:16:10;5.28;;;3.25;;
16784;SDS011;8509;52.178;5.404;2024-02-26T06:18:36;9.23;;;5.32;;
16784;SDS011;8509;52.178;5.404;2024-02-26T06:21:03;9.40;;;4.82;;
16784;SDS011;8509;52.178;5.404;2024-02-26T06:23:41;6.10;;;3.60;;
16784;SDS011;8509;52.178;5.404;2024-02-26T06:26:10;9.30;;;4.57;;
16784;SDS011;8509;52.178;5.404;2024-02-26T06:28:37;8.30;;;4.28;;
16784;SDS011;8509;52.178;5.404;2024-02-26T06:31:27;11.05;;;5.53;;
16784;SDS011;8509;52.178;5.404;2024-02-26T06:33:53;10.05;;;4.35;;
16784;SDS011;8509;52.178;5.404;2024-02-26T06:36:19;9.45;;;4.90;;
16784;SDS011;8509;52.178;5.404;2024-02-26T06:38:45;9.15;;;4.40;;
16784;SDS011;8509;52.178;5.404;2024-02-26T06:41:10;13.52;;;4.88;;
16784;SDS011;8509;52.178;5.404;2024-02-26T06:43:36;8.05;;;4.72;;
16784;SDS011;8509;52.178;5.404;2024-02-26T06:46:02;11.88;;;4.05;;
16784;SDS011;8509;52.178;5.404;2024-02-26T06:48:28;11.82;;;5.03;;
16784;SDS011;8509;52.178;5.404;2024-02-26T06:50:54;9.65;;;5.03;;
16784;SDS011;8509;52.178;5.404;2024-02-26T06:53:22;11.68;;;5.97;;
16784;SDS011;8509;52.178;5.404;2024-02-26T06:55:48;18.73;;;6.95;;
16784;SDS011;8509;52.178;5.404;2024-02-26T06:58:18;12.73;;;6.15;;
16784;SDS011;8509;52.178;5.404;2024-02-26T07:00:44;13.45;;;6.45;;
16784;SDS011;8509;52.178;5.404;2024-02-26T07:03:11;13.30;;;5.88;;
16784;SDS011;8509;52.178;5.404;2024-02-26T07:05:40;14.40;;;6.50;;
16784;SDS011;8509;52.178;5.404;2024-02-26T07:08:06;12.75;;;7.38;;
16784;SDS011;8509;52.178;5.404;2024-02-26T07:10:31;17.27;;;6.93;;
16784;SDS011;8509;52.178;5.404;2024-02-26T07:12:57;14.13;;;7.22;;
16784;SDS011;8509;52.178;5.404;2024-02-26T07:15:25;10.48;;;5.93;;
16784;SDS011;8509;52.178;5.404;2024-02-26T07:17:52;17.30;;;8.35;;
16784;SDS011;8509;52.178;5.404;2024-02-26T07:20:19;13.45;;;5.82;;
16784;SDS011;8509;52.178;5.404;2024-02-26T07:22:45;17.35;;;7.10;;
16784;SDS011;8509;52.178;5.404;2024-02-26T07:25:12;16.48;;;7.63;;
16784;SDS011;8509;52.178;5.404;2024-02-26T07:27:39;11.25;;;7.50;;
16784;SDS011;8509;52.178;5.404;2024-02-26T07:30:07;14.73;;;6.72;;
16784;SDS011;8509;52.178;5.404;2024-02-26T07:32:34;15.35;;;6.47;;
16784;SDS011;8509;52.178;5.404;2024-02-26T07:35:00;17.40;;;6.80;;
16784;SDS011;8509;52.178;5.404;2024-02-26T07:37:26;12.98;;;7.85;;
16784;SDS011;8509;52.178;5.404;2024-02-26T07:39:51;13.63;;;6.68;;
16784;SDS011;8509;52.178;5.404;2024-02-26T07:42:18;14.43;;;7.97;;
16784;SDS011;8509;52.178;5.404;2024-02-26T07:44:44;15.30;;;7.82;;
16784;SDS011;8509;52.178;5.404;2024-02-26T07:47:09;19.13;;;9.07;;
16784;SDS011;8509;52.178;5.404;2024-02-26T07:49:35;11.40;;;6.25;;
16784;SDS011;8509;52.178;5.404;2024-02-26T07:52:01;13.00;;;7.85;;
16784;SDS011;8509;52.178;5.404;2024-02-26T07:54:26;14.50;;;6.65;;
16784;SDS011;8509;52.178;5.404;2024-02-26T07:56:52;12.52;;;6.72;;
16784;SDS011;8509;52.178;5.404;2024-02-26T07:59:18;8.60;;;4.68;;
16784;SDS011;8509;52.178;5.404;2024-02-26T08:01:43;12.63;;;7.07;;
16784;SDS011;8509;52.178;5.404;2024-02-26T08:04:10;10.32;;;4.43;;
16784;SDS011;8509;52.178;5.404;2024-02-26T08:06:36;9.70;;;4.65;;
16784;SDS011;8509;52.178;5.404;2024-02-26T08:09:01;8.57;;;5.75;;
16784;SDS011;8509;52.178;5.404;2024-02-26T08:11:31;10.05;;;4.18;;
16784;SDS011;8509;52.178;5.404;2024-02-26T08:13:57;10.23;;;4.68;;
16784;SDS011;8509;52.178;5.404;2024-02-26T08:16:24;7.03;;;4.35;;
16784;SDS011;8509;52.178;5.404;2024-02-26T08:18:49;6.65;;;4.00;;
16784;SDS011;8509;52.178;5.404;2024-02-26T08:21:15;7.57;;;4.70;;
16784;SDS011;8509;52.178;5.404;2024-02-26T08:23:42;7.82;;;4.68;;
16784;SDS011;8509;52.178;5.404;2024-02-26T08:26:15;10.88;;;5.97;;
16784;SDS011;8509;52.178;5.404;2024-02-26T08:28:40;16.25;;;4.05;;
16784;SDS011;8509;52.178;5.404;2024-02-26T08:31:06;5.70;;;3.47;;
16784;SDS011;8509;52.178;5.404;2024-02-26T08:33:32;6.57;;;3.28;;
16784;SDS011;8509;52.178;5.404;2024-02-26T08:36:03;6.45;;;4.50;;
16784;SDS011;8509;52.178;5.404;2024-02-26T08:38:30;10.70;;;4.30;;
16784;SDS011;8509;52.178;5.404;2024-02-26T08:40:55;6.75;;;3.80;;
16784;SDS011;8509;52.178;5.404;2024-02-26T08:43:21;10.35;;;5.10;;
16784;SDS011;8509;52.178;5.404;2024-02-26T08:45:47;7.07;;;3.78;;
16784;SDS011;8509;52.178;5.404;2024-02-26T08:48:12;8.70;;;4.13;;
16784;SDS011;8509;52.178;5.404;2024-02-26T08:50:40;8.55;;;4.10;;
16784;SDS011;8509;52.178;5.404;2024-02-26T08:53:07;5.28;;;3.20;;
16784;SDS011;8509;52.178;5.404;2024-02-26T08:55:41;6.05;;;3.67;;
16784;SDS011;8509;52.178;5.404;2024-02-26T08:58:09;6.85;;;4.22;;
16784;SDS011;8509;52.178;5.404;2024-02-26T09:00:35;8.55;;;3.40;;
16784;SDS011;8509;52.178;5.404;2024-02-26T09:03:03;6.30;;;3.08;;
16784;SDS011;8509;52.178;5.404;2024-02-26T09:05:31;5.53;;;3.08;;
16784;SDS011;8509;52.178;5.404;2024-02-26T09:07:57;6.68;;;3.95;;
16784;SDS011;8509;52.178;5.404;2024-02-26T09:10:22;6.13;;;3.53;;
16784;SDS011;8509;52.178;5.404;2024-02-26T09:12:48;7.75;;;4.13;;
16784;SDS011;8509;52.178;5.404;2024-02-26T09:15:14;5.07;;;2.97;;
16784;SDS011;8509;52.178;5.404;2024-02-26T09:17:40;4.38;;;2.78;;
16784;SDS011;8509;52.178;5.404;2024-02-26T09:20:08;3.15;;;2.40;;
16784;SDS011;8509;52.178;5.404;2024-02-26T09:22:35;4.22;;;2.53;;
16784;SDS011;8509;52.178;5.404;2024-02-26T09:25:03;4.88;;;3.40;;
16784;SDS011;8509;52.178;5.404;2024-02-26T09:27:29;5.72;;;2.80;;
16784;SDS011;8509;52.178;5.404;2024-02-26T09:30:02;4.15;;;2.78;;
16784;SDS011;8509;52.178;5.404;2024-02-26T09:32:28;4.07;;;2.30;;
16784;SDS011;8509;52.178;5.404;2024-02-26T09:34:55;5.03;;;3.28;;
16784;SDS011;8509;52.178;5.404;2024-02-26T09:37:21;3.13;;;2.47;;
16784;SDS011;8509;52.178;5.404;2024-02-26T09:39:46;4.10;;;2.17;;
16784;SDS011;8509;52.178;5.404;2024-02-26T09:42:12;5.53;;;3.00;;
16784;SDS011;8509;52.178;5.404;2024-02-26T09:44:39;4.53;;;2.47;;
16784;SDS011;8509;52.178;5.404;2024-02-26T09:47:08;4.90;;;3.22;;
16784;SDS011;8509;52.178;5.404;2024-02-26T09:49:36;3.47;;;2.08;;
16784;SDS011;8509;52.178;5.404;2024-02-26T09:52:03;5.00;;;2.90;;
16784;SDS011;8509;52.178;5.404;2024-02-26T09:54:30;5.22;;;2.60;;
16784;SDS011;8509;52.178;5.404;2024-02-26T09:56:59;5.97;;;3.80;;
16784;SDS011;8509;52.178;5.404;2024-02-26T09:59:27;4.28;;;2.35;;
16784;SDS011;8509;52.178;5.404;2024-02-26T10:01:58;6.75;;;3.40;;
16784;SDS011;8509;52.178;5.404;2024-02-26T10:04:25;4.72;;;3.10;;
16784;SDS011;8509;52.178;5.404;2024-02-26T10:06:51;5.25;;;3.13;;
16784;SDS011;8509;52.178;5.404;2024-02-26T10:09:17;3.55;;;1.95;;
16784;SDS011;8509;52.178;5.404;2024-02-26T10:11:44;6.05;;;3.20;;
16784;SDS011;8509;52.178;5.404;2024-02-26T10:14:11;3.72;;;2.53;;
16784;SDS011;8509;52.178;5.404;2024-02-26T10:16:37;5.40;;;2.63;;
16784;SDS011;8509;52.178;5.404;2024-02-26T10:19:03;2.30;;;2.05;;
16784;SDS011;8509;52.178;5.404;2024-02-26T10:21:28;6.25;;;2.95;;
16784;SDS011;8509;52.178;5.404;2024-02-26T10:23:54;3.03;;;2.28;;
16784;SDS011;8509;52.178;5.404;2024-02-26T10:26:20;2.70;;;2.28;;
16784;SDS011;8509;52.178;5.404;2024-02-26T10:28:46;6.30;;;3.22;;
16784;SDS011;8509;52.178;5.404;2024-02-26T10:31:13;4.85;;;3.30;;
16784;SDS011;8509;52.178;5.404;2024-02-26T10:33:39;6.55;;;2.65;;
16784;SDS011;8509;52.178;5.404;2024-02-26T10:36:07;5.68;;;2.38;;
16784;SDS011;8509;52.178;5.404;2024-02-26T10:38:34;4.35;;;3.08;;
16784;SDS011;8509;52.178;5.404;2024-02-26T10:41:02;4.80;;;2.63;;
16784;SDS011;8509;52.178;5.404;2024-02-26T10:43:28;4.47;;;2.28;;
16784;SDS011;8509;52.178;5.404;2024-02-26T10:45:54;3.47;;;2.67;;
16784;SDS011;8509;52.178;5.404;2024-02-26T10:48:21;3.88;;;2.80;;
16784;SDS011;8509;52.178;5.404;2024-02-26T10:50:48;5.30;;;2.97;;
16784;SDS011;8509;52.178;5.404;2024-02-26T10:53:26;2.67;;;2.25;;
16784;SDS011;8509;52.178;5.404;2024-02-26T10:55:56;4.70;;;2.88;;
16784;SDS011;8509;52.178;5.404;2024-02-26T10:58:26;2.40;;;2.20;;
16784;SDS011;8509;52.178;5.404;2024-02-26T11:00:52;3.53;;;2.42;;
16784;SDS011;8509;52.178;5.404;2024-02-26T11:03:18;6.07;;;3.28;;
16784;SDS011;8509;52.178;5.404;2024-02-26T11:05:48;2.97;;;2.10;;
16784;SDS011;8509;52.178;5.404;2024-02-26T11:08:18;4.70;;;2.13;;
16784;SDS011;8509;52.178;5.404;2024-02-26T11:10:47;4.63;;;2.60;;
16784;SDS011;8509;52.178;5.404;2024-02-26T11:13:16;5.78;;;2.58;;
16784;SDS011;8509;52.178;5.404;2024-02-26T11:15:44;3.60;;;2.15;;
16784;SDS011;8509;52.178;5.404;2024-02-26T11:18:15;4.78;;;2.75;;
16784;SDS011;8509;52.178;5.404;2024-02-26T11:20:43;4.20;;;2.75;;
16784;SDS011;8509;52.178;5.404;2024-02-26T11:23:11;4.72;;;2.70;;
16784;SDS011;8509;52.178;5.404;2024-02-26T11:25:37;3.95;;;2.45;;
16784;SDS011;8509;52.178;5.404;2024-02-26T11:28:05;5.32;;;2.40;;
16784;SDS011;8509;52.178;5.404;2024-02-26T11:30:35;5.20;;;2.92;;
16784;SDS011;8509;52.178;5.404;2024-02-26T11:33:08;5.07;;;3.15;;
16784;SDS011;8509;52.178;5.404;2024-02-26T11:35:36;6.57;;;3.72;;
16784;SDS011;8509;52.178;5.404;2024-02-26T11:38:01;4.63;;;2.88;;
16784;SDS011;8509;52.178;5.404;2024-02-26T11:40:28;4.35;;;3.08;;
16784;SDS011;8509;52.178;5.404;2024-02-26T11:42:56;6.03;;;3.55;;
16784;SDS011;8509;52.178;5.404;2024-02-26T11:48:23;5.38;;;2.90;;
16784;SDS011;8509;52.178;5.404;2024-02-26T11:50:51;5.45;;;2.85;;
16784;SDS011;8509;52.178;5.404;2024-02-26T11:58:57;4.07;;;2.53;;
16784;SDS011;8509;52.178;5.404;2024-02-26T12:01:44;5.50;;;3.08;;
16784;SDS011;8509;52.178;5.404;2024-02-26T12:04:24;5.43;;;2.67;;
16784;SDS011;8509;52.178;5.404;2024-02-26T12:10:13;3.92;;;2.47;;
16784;SDS011;8509;52.178;5.404;2024-02-26T12:12:54;4.55;;;2.97;;
16784;SDS011;8509;52.178;5.404;2024-02-26T12:15:23;4.63;;;2.65;;
16784;SDS011;8509;52.178;5.404;2024-02-26T12:17:52;5.03;;;2.95;;
16784;SDS011;8509;52.178;5.404;2024-02-26T12:20:18;4.32;;;2.75;;
16784;SDS011;8509;52.178;5.404;2024-02-26T12:22:45;5.32;;;2.83;;
16784;SDS011;8509;52.178;5.404;2024-02-26T12:25:14;5.82;;;2.90;;
16784;SDS011;8509;52.178;5.404;2024-02-26T12:27:41;7.95;;;3.38;;
16784;SDS011;8509;52.178;5.404;2024-02-26T12:30:07;5.50;;;3.08;;
16784;SDS011;8509;52.178;5.404;2024-02-26T12:32:33;8.45;;;3.22;;
16784;SDS011;8509;52.178;5.404;2024-02-26T12:35:00;6.25;;;3.08;;
16784;SDS011;8509;52.178;5.404;2024-02-26T12:37:26;4.28;;;2.85;;
16784;SDS011;8509;52.178;5.404;2024-02-26T12:39:53;5.13;;;2.90;;
16784;SDS011;8509;52.178;5.404;2024-02-26T12:42:19;5.22;;;2.90;;
16784;SDS011;8509;52.178;5.404;2024-02-26T12:44:49;6.63;;;3.17;;
16784;SDS011;8509;52.178;5.404;2024-02-26T12:47:17;5.00;;;3.00;;
16784;SDS011;8509;52.178;5.404;2024-02-26T12:49:45;3.50;;;2.10;;
16784;SDS011;8509;52.178;5.404;2024-02-26T12:52:12;5.00;;;2.65;;
16784;SDS011;8509;52.178;5.404;2024-02-26T12:54:38;5.57;;;2.58;;
16784;SDS011;8509;52.178;5.404;2024-02-26T12:57:05;3.88;;;2.38;;
16784;SDS011;8509;52.178;5.404;2024-02-26T12:59:33;5.03;;;2.60;;
16784;SDS011;8509;52.178;5.404;2024-02-26T13:02:01;5.03;;;2.83;;
16784;SDS011;8509;52.178;5.404;2024-02-26T13:04:28;6.00;;;3.13;;
16784;SDS011;8509;52.178;5.404;2024-02-26T13:06:55;10.55;;;2.80;;
16784;SDS011;8509;52.178;5.404;2024-02-26T13:09:27;5.50;;;3.27;;
16784;SDS011;8509;52.178;5.404;2024-02-26T13:11:55;3.97;;;2.30;;
16784;SDS011;8509;52.178;5.404;2024-02-26T13:14:21;3.63;;;2.50;;
16784;SDS011;8509;52.178;5.404;2024-02-26T13:16:56;3.97;;;2.30;;
16784;SDS011;8509;52.178;5.404;2024-02-26T13:19:23;4.70;;;3.05;;
16784;SDS011;8509;52.178;5.404;2024-02-26T13:21:49;3.97;;;2.55;;
16784;SDS011;8509;52.178;5.404;2024-02-26T13:24:14;5.30;;;2.30;;
16784;SDS011;8509;52.178;5.404;2024-02-26T13:26:40;4.30;;;2.35;;
16784;SDS011;8509;52.178;5.404;2024-02-26T13:29:06;3.88;;;2.20;;
16784;SDS011;8509;52.178;5.404;2024-02-26T13:31:32;4.32;;;2.42;;
16784;SDS011;8509;52.178;5.404;2024-02-26T13:34:07;5.53;;;3.05;;
16784;SDS011;8509;52.178;5.404;2024-02-26T13:36:33;5.47;;;2.83;;
16784;SDS011;8509;52.178;5.404;2024-02-26T13:38:58;3.75;;;2.10;;
16784;SDS011;8509;52.178;5.404;2024-02-26T13:41:25;4.43;;;2.42;;
16784;SDS011;8509;52.178;5.404;2024-02-26T13:43:51;5.25;;;2.28;;
16784;SDS011;8509;52.178;5.404;2024-02-26T13:46:17;4.78;;;2.47;;
16784;SDS011;8509;52.178;5.404;2024-02-26T13:48:42;5.20;;;2.78;;
16784;SDS011;8509;52.178;5.404;2024-02-26T13:51:08;3.53;;;2.17;;
16784;SDS011;8509;52.178;5.404;2024-02-26T13:53:34;4.97;;;2.42;;
16784;SDS011;8509;52.178;5.404;2024-02-26T13:56:00;3.15;;;2.38;;
16784;SDS011;8509;52.178;5.404;2024-02-26T13:58:26;2.80;;;1.60;;
16784;SDS011;8509;52.178;5.404;2024-02-26T14:00:55;4.63;;;2.47;;
16784;SDS011;8509;52.178;5.404;2024-02-26T14:03:21;5.03;;;1.92;;
16784;SDS011;8509;52.178;5.404;2024-02-26T14:05:47;2.58;;;1.90;;
16784;SDS011;8509;52.178;5.404;2024-02-26T14:08:13;2.63;;;1.92;;
16784;SDS011;8509;52.178;5.404;2024-02-26T14:10:42;4.82;;;2.10;;
16784;SDS011;8509;52.178;5.404;2024-02-26T14:13:07;3.22;;;1.92;;
16784;SDS011;8509;52.178;5.404;2024-02-26T14:15:33;2.42;;;1.67;;
16784;SDS011;8509;52.178;5.404;2024-02-26T14:18:00;1.92;;;1.60;;
16784;SDS011;8509;52.178;5.404;2024-02-26T14:20:28;3.83;;;2.35;;
16784;SDS011;8509;52.178;5.404;2024-02-26T14:22:54;2.97;;;2.25;;
16784;SDS011;8509;52.178;5.404;2024-02-26T14:25:20;3.58;;;2.08;;
16784;SDS011;8509;52.178;5.404;2024-02-26T14:27:46;3.92;;;2.10;;
16784;SDS011;8509;52.178;5.404;2024-02-26T14:30:12;4.70;;;1.60;;
16784;SDS011;8509;52.178;5.404;2024-02-26T14:32:38;2.83;;;1.70;;
16784;SDS011;8509;52.178;5.404;2024-02-26T14:35:07;2.55;;;1.67;;
16784;SDS011;8509;52.178;5.404;2024-02-26T14:37:34;4.50;;;1.98;;
16784;SDS011;8509;52.178;5.404;2024-02-26T14:40:01;3.35;;;1.83;;
16784;SDS011;8509;52.178;5.404;2024-02-26T14:42:30;3.10;;;1.88;;
16784;SDS011;8509;52.178;5.404;2024-02-26T14:44:56;3.28;;;1.73;;
16784;SDS011;8509;52.178;5.404;2024-02-26T14:47:22;3.72;;;1.98;;
16784;SDS011;8509;52.178;5.404;2024-02-26T14:49:48;2.28;;;1.70;;
16784;SDS011;8509;52.178;5.404;2024-02-26T14:52:16;1.95;;;1.67;;
16784;SDS011;8509;52.178;5.404;2024-02-26T14:54:42;2.97;;;2.35;;
16784;SDS011;8509;52.178;5.404;2024-02-26T14:57:08;2.67;;;2.08;;
16784;SDS011;8509;52.178;5.404;2024-02-26T14:59:34;1.92;;;1.42;;
16784;SDS011;8509;52.178;5.404;2024-02-26T15:02:01;5.05;;;2.15;;
16784;SDS011;8509;52.178;5.404;2024-02-26T15:04:27;2.65;;;1.85;;
16784;SDS011;8509;52.178;5.404;2024-02-26T15:06:53;2.10;;;1.23;;
16784;SDS011;8509;52.178;5.404;2024-02-26T15:09:19;5.90;;;1.63;;
16784;SDS011;8509;52.178;5.404;2024-02-26T15:11:45;4.13;;;1.33;;
16784;SDS011;8509;52.178;5.404;2024-02-26T15:14:11;3.80;;;1.70;;
16784;SDS011;8509;52.178;5.404;2024-02-26T15:16:37;3.05;;;1.98;;
16784;SDS011;8509;52.178;5.404;2024-02-26T15:19:03;5.13;;;1.55;;
16784;SDS011;8509;52.178;5.404;2024-02-26T15:21:29;3.03;;;1.58;;
16784;SDS011;8509;52.178;5.404;2024-02-26T15:23:55;2.28;;;1.33;;
16784;SDS011;8509;52.178;5.404;2024-02-26T15:26:21;2.17;;;1.77;;
16784;SDS011;8509;52.178;5.404;2024-02-26T15:28:47;3.13;;;1.40;;